createdAt,value
2022-10-13T00:01:13.473Z,2.85
2022-10-13T00:03:46.104Z,2.13
2022-10-13T00:06:15.249Z,2.50
2022-10-13T00:08:42.785Z,2.30
2022-10-13T00:11:12.939Z,2.35
2022-10-13T00:13:40.529Z,2.55
2022-10-13T00:16:08.789Z,2.55
2022-10-13T00:18:35.688Z,2.40
2022-10-13T00:21:08.476Z,2.58
2022-10-13T00:23:35.458Z,2.45
2022-10-13T00:26:05.138Z,2.35
2022-10-13T00:28:32.143Z,2.22
2022-10-13T00:30:59.346Z,2.72
2022-10-13T00:33:26.556Z,2.58
2022-10-13T00:35:53.491Z,2.53
2022-10-13T00:38:23.363Z,2.60
2022-10-13T00:40:52.627Z,3.25
2022-10-13T00:43:22.607Z,2.70
2022-10-13T00:45:50.816Z,3.08
2022-10-13T00:48:22.661Z,2.92
2022-10-13T00:50:49.875Z,3.22
2022-10-13T00:53:18.871Z,2.85
2022-10-13T00:55:47.223Z,3.00
2022-10-13T00:58:17.385Z,3.13
2022-10-13T01:00:47.519Z,3.05
2022-10-13T01:03:15.164Z,2.97
2022-10-13T01:05:42.859Z,3.00
2022-10-13T01:08:12.236Z,3.03
2022-10-13T01:10:58.084Z,2.60
2022-10-13T01:14:19.242Z,3.30
2022-10-13T01:17:06.151Z,3.08
2022-10-13T01:19:51.761Z,4.38
2022-10-13T01:22:39.806Z,3.78
2022-10-13T01:25:15.961Z,3.88
2022-10-13T01:28:01.395Z,4.47
2022-10-13T01:30:30.934Z,4.93
2022-10-13T01:33:06.688Z,4.72
2022-10-13T01:36:06.894Z,4.70
2022-10-13T01:38:40.324Z,5.57
2022-10-13T01:41:28.772Z,5.28
2022-10-13T01:44:05.598Z,5.43
2022-10-13T01:46:35.643Z,4.55
2022-10-13T01:51:32.630Z,5.47
2022-10-13T01:53:59.827Z,5.05
2022-10-13T01:56:26.705Z,5.15
2022-10-13T01:58:56.707Z,4.72
2022-10-13T02:01:42.364Z,5.32
2022-10-13T02:04:23.182Z,5.05
2022-10-13T02:07:08.001Z,5.25
2022-10-13T02:09:58.388Z,5.30
2022-10-13T02:12:34.733Z,5.35
2022-10-13T02:17:31.734Z,4.32
2022-10-13T02:19:59.424Z,5.47
2022-10-13T02:22:31.862Z,4.53
2022-10-13T02:24:59.933Z,4.63
2022-10-13T02:27:27.641Z,4.55
2022-10-13T02:29:57.387Z,4.53
2022-10-13T02:32:24.293Z,4.35
2022-10-13T02:34:51.118Z,5.20
2022-10-13T02:37:18.567Z,4.38
2022-10-13T02:39:45.376Z,7.05
2022-10-13T02:42:12.352Z,5.32
2022-10-13T02:44:40.297Z,4.55
2022-10-13T02:47:07.192Z,4.53
2022-10-13T02:49:34.020Z,4.30
2022-10-13T02:52:00.835Z,5.13
2022-10-13T02:54:28.332Z,4.72
2022-10-13T02:56:55.127Z,5.60
2022-10-13T02:59:21.971Z,5.13
2022-10-13T03:01:51.205Z,5.72
2022-10-13T03:04:18.039Z,5.22
2022-10-13T03:06:44.953Z,5.07
2022-10-13T03:09:12.236Z,4.57
2022-10-13T03:11:39.646Z,4.35
2022-10-13T03:14:06.537Z,4.18
2022-10-13T03:16:33.363Z,4.80
2022-10-13T03:19:00.217Z,4.30
2022-10-13T03:21:27.224Z,4.25
2022-10-13T03:23:54.146Z,3.65
2022-10-13T03:26:20.964Z,3.97
2022-10-13T03:28:51.619Z,4.25
2022-10-13T03:31:18.972Z,4.20
2022-10-13T03:33:45.944Z,4.65
2022-10-13T03:36:16.345Z,3.72
2022-10-13T03:38:44.417Z,3.92
2022-10-13T03:41:16.804Z,4.03
2022-10-13T03:43:44.941Z,4.03
2022-10-13T03:46:15.799Z,3.35
2022-10-13T03:48:43.025Z,3.92
2022-10-13T03:51:12.902Z,4.15
2022-10-13T03:53:39.797Z,4.13
2022-10-13T03:56:07.875Z,4.32
2022-10-13T03:58:35.200Z,4.03
2022-10-13T04:01:05.695Z,4.07
2022-10-13T04:03:34.731Z,4.35
2022-10-13T04:06:03.931Z,3.72
2022-10-13T04:08:31.711Z,3.75
2022-10-13T04:11:04.362Z,4.18
2022-10-13T04:13:31.923Z,3.85
2022-10-13T04:16:08.507Z,3.80
2022-10-13T04:18:35.830Z,3.80
2022-10-13T04:21:08.593Z,4.03
2022-10-13T04:23:36.224Z,3.72
2022-10-13T04:26:04.786Z,3.70
2022-10-13T04:28:36.093Z,4.05
2022-10-13T04:31:03.492Z,3.88
2022-10-13T04:33:30.687Z,4.32
2022-10-13T04:35:57.575Z,3.65
2022-10-13T04:38:25.784Z,4.00
2022-10-13T04:40:52.565Z,3.97
2022-10-13T04:43:19.955Z,3.50
2022-10-13T04:45:46.664Z,3.33
2022-10-13T04:48:14.620Z,3.55
2022-10-13T04:50:41.526Z,3.33
2022-10-13T04:53:08.522Z,3.55
2022-10-13T04:55:36.440Z,4.03
2022-10-13T04:58:03.552Z,3.50
2022-10-13T05:00:31.802Z,3.75
2022-10-13T05:02:59.089Z,3.75
2022-10-13T05:05:25.908Z,3.80
2022-10-13T05:07:52.964Z,3.65
2022-10-13T05:10:20.187Z,3.70
2022-10-13T05:12:47.062Z,3.63
2022-10-13T05:15:13.879Z,3.92
2022-10-13T05:17:40.668Z,3.55
2022-10-13T05:20:08.108Z,4.15
2022-10-13T05:22:34.888Z,3.60
2022-10-13T05:25:01.801Z,3.72
2022-10-13T05:27:29.378Z,3.55
2022-10-13T05:29:56.226Z,2.95
2022-10-13T05:32:23.215Z,3.70
2022-10-13T05:34:50.210Z,3.90
2022-10-13T05:37:18.278Z,3.60
2022-10-13T05:39:48.766Z,3.45
2022-10-13T05:42:15.845Z,3.88
2022-10-13T05:44:42.923Z,3.20
2022-10-13T05:47:09.782Z,3.55
2022-10-13T05:49:39.892Z,3.47
2022-10-13T05:54:53.032Z,3.40
2022-10-13T05:57:27.633Z,3.15
2022-10-13T06:00:21.277Z,3.20
2022-10-13T06:02:50.223Z,2.70
2022-10-13T06:05:20.187Z,3.15
2022-10-13T06:10:15.797Z,3.17
2022-10-13T06:12:42.742Z,3.30
2022-10-13T06:15:10.233Z,3.63
2022-10-13T06:17:38.578Z,3.65
2022-10-13T06:20:06.926Z,2.85
2022-10-13T06:22:35.426Z,2.55
2022-10-13T06:25:03.739Z,4.18
2022-10-13T06:27:31.614Z,3.88
2022-10-13T06:29:58.707Z,3.28
2022-10-13T06:32:27.379Z,4.28
2022-10-13T06:34:54.842Z,5.38
2022-10-13T06:37:26.950Z,4.05
2022-10-13T06:39:54.312Z,3.53
2022-10-13T06:42:22.035Z,4.45
2022-10-13T06:44:49.429Z,3.58
2022-10-13T06:47:17.810Z,4.07
2022-10-13T06:49:44.667Z,3.60
2022-10-13T06:52:11.602Z,4.13
2022-10-13T06:54:38.846Z,3.78
2022-10-13T06:57:06.487Z,4.18
2022-10-13T06:59:33.764Z,3.72
2022-10-13T07:02:01.333Z,3.80
2022-10-13T07:04:29.509Z,4.05
2022-10-13T07:06:56.414Z,4.85
2022-10-13T07:09:24.422Z,3.47
2022-10-13T07:11:52.108Z,3.85
2022-10-13T07:14:18.973Z,5.10
2022-10-13T07:16:48.322Z,3.47
2022-10-13T07:19:15.189Z,4.13
2022-10-13T07:21:42.154Z,4.25
2022-10-13T07:24:11.162Z,4.03
2022-10-13T07:26:37.836Z,4.28
2022-10-13T07:29:04.787Z,3.95
2022-10-13T07:31:32.083Z,3.35
2022-10-13T07:34:00.064Z,4.03
2022-10-13T07:36:27.641Z,3.72
2022-10-13T07:38:54.585Z,3.25
2022-10-13T07:41:21.529Z,3.25
2022-10-13T07:43:49.166Z,3.50
2022-10-13T07:46:16.042Z,3.90
2022-10-13T07:48:42.989Z,3.30
2022-10-13T07:51:12.628Z,3.60
2022-10-13T07:53:41.418Z,3.60
2022-10-13T07:56:11.528Z,3.10
2022-10-13T08:01:07.629Z,7.95
2022-10-13T08:06:08.409Z,3.35
2022-10-13T08:08:36.021Z,2.42
2022-10-13T08:11:07.252Z,3.50
2022-10-13T08:13:35.588Z,3.70
2022-10-13T08:16:03.072Z,2.88
2022-10-13T08:18:30.616Z,2.38
2022-10-13T08:21:33.154Z,3.60
2022-10-13T08:23:50.969Z,3.03
2022-10-13T08:26:23.456Z,1.75
2022-10-13T08:29:09.544Z,3.53
2022-10-13T08:31:37.753Z,1.05
2022-10-13T08:34:05.097Z,2.47
2022-10-13T08:36:32.084Z,2.53
2022-10-13T08:38:59.047Z,2.90
2022-10-13T08:41:31.278Z,2.80
2022-10-13T08:47:10.732Z,2.67
2022-10-13T08:49:40.311Z,2.40
2022-10-13T08:52:18.464Z,1.48
2022-10-13T08:54:45.859Z,2.38
2022-10-13T08:57:12.900Z,2.90
2022-10-13T08:59:40.041Z,2.72
2022-10-13T09:02:31.268Z,2.97
2022-10-13T09:05:03.449Z,2.22
2022-10-13T09:07:37.103Z,2.35
2022-10-13T09:10:04.746Z,2.78
2022-10-13T09:12:33.916Z,2.53
2022-10-13T09:15:05.356Z,2.40
2022-10-13T09:17:34.512Z,2.13
2022-10-13T09:20:25.368Z,2.70
2022-10-13T09:23:03.397Z,2.75
2022-10-13T09:25:40.191Z,2.35
2022-10-13T09:28:16.937Z,2.30
2022-10-13T09:30:48.811Z,2.60
2022-10-13T09:33:20.836Z,1.23
2022-10-13T09:36:15.794Z,2.10
2022-10-13T09:39:05.242Z,2.13
2022-10-13T09:41:34.778Z,2.28
2022-10-13T09:44:10.410Z,2.35
2022-10-13T09:46:49.016Z,2.83
2022-10-13T09:49:37.420Z,2.38
2022-10-13T09:52:19.404Z,1.83
2022-10-13T09:54:54.183Z,2.65
2022-10-13T09:57:21.839Z,2.78
2022-10-13T10:00:06.866Z,2.10
2022-10-13T10:02:38.688Z,2.65
2022-10-13T10:05:18.358Z,0.82
2022-10-13T10:07:45.463Z,2.90
2022-10-13T10:10:30.595Z,3.13
2022-10-13T10:12:58.158Z,2.83
2022-10-13T10:15:33.699Z,2.58
2022-10-13T10:18:07.591Z,2.63
2022-10-13T10:20:54.296Z,1.95
2022-10-13T10:23:40.056Z,2.70
2022-10-13T10:26:20.715Z,3.40
2022-10-13T10:29:15.541Z,2.35
2022-10-13T10:31:58.079Z,1.52
2022-10-13T10:34:32.725Z,2.40
2022-10-13T10:37:21.371Z,3.05
2022-10-13T10:40:16.386Z,2.67
2022-10-13T10:43:01.553Z,2.10
2022-10-13T10:45:34.034Z,3.08
2022-10-13T10:48:08.009Z,2.70
2022-10-13T10:50:35.627Z,3.35
2022-10-13T10:53:07.269Z,2.78
2022-10-13T10:56:00.653Z,3.40
2022-10-13T10:58:47.674Z,3.35
2022-10-13T11:01:30.834Z,3.00
2022-10-13T11:04:09.673Z,3.70
2022-10-13T11:06:37.999Z,2.70
2022-10-13T11:09:06.157Z,3.17
2022-10-13T11:11:37.730Z,2.00
2022-10-13T11:14:04.724Z,2.72
2022-10-13T11:16:35.739Z,1.88
2022-10-13T11:19:05.898Z,1.92
2022-10-13T11:21:53.108Z,2.33
2022-10-13T11:25:12.509Z,2.20
2022-10-13T11:27:41.574Z,2.78
2022-10-13T11:30:42.133Z,2.50
2022-10-13T11:33:32.096Z,2.10
2022-10-13T11:36:39.481Z,1.20
2022-10-13T11:42:09.024Z,2.10
2022-10-13T11:44:57.953Z,2.20
2022-10-13T11:47:55.843Z,2.22
2022-10-13T11:50:34.408Z,2.05
2022-10-13T11:53:17.211Z,2.30
2022-10-13T11:55:55.411Z,2.33
2022-10-13T11:58:28.207Z,2.13
2022-10-13T12:00:59.779Z,2.08
2022-10-13T12:03:38.757Z,2.65
2022-10-13T12:06:32.161Z,2.55
2022-10-13T12:09:06.040Z,1.45
2022-10-13T12:11:36.215Z,1.30
2022-10-13T12:14:19.359Z,2.78
2022-10-13T12:16:57.700Z,2.50
2022-10-13T12:19:27.525Z,2.08
2022-10-13T12:21:56.964Z,2.58
2022-10-13T12:24:25.896Z,2.22
2022-10-13T12:26:53.296Z,0.93
2022-10-13T12:29:25.611Z,2.25
2022-10-13T12:31:52.930Z,1.90
2022-10-13T12:34:21.484Z,1.77
2022-10-13T12:37:00.487Z,2.05
2022-10-13T12:39:29.350Z,1.60
2022-10-13T12:41:57.885Z,2.40
2022-10-13T12:44:27.868Z,1.55
2022-10-13T12:46:59.046Z,1.45
2022-10-13T12:49:31.551Z,1.08
2022-10-13T12:52:11.309Z,2.00
2022-10-13T12:54:40.488Z,1.98
2022-10-13T12:57:38.334Z,2.00
2022-10-13T13:00:21.178Z,2.38
2022-10-13T13:02:57.443Z,2.20
2022-10-13T13:05:39.329Z,1.95
2022-10-13T13:08:23.398Z,1.70
2022-10-13T13:11:01.858Z,2.40
2022-10-13T13:13:29.896Z,1.90
2022-10-13T13:16:16.828Z,1.90
2022-10-13T13:18:45.908Z,1.63
2022-10-13T13:21:15.379Z,1.90
2022-10-13T13:23:49.560Z,1.92
2022-10-13T13:26:22.545Z,1.58
2022-10-13T13:28:54.658Z,1.70
2022-10-13T13:31:24.319Z,1.90
2022-10-13T13:33:51.281Z,1.77
2022-10-13T13:36:25.084Z,2.03
2022-10-13T13:38:53.674Z,1.83
2022-10-13T13:41:21.315Z,1.92
2022-10-13T13:43:49.939Z,2.38
2022-10-13T13:46:18.139Z,2.15
2022-10-13T13:48:45.186Z,3.10
2022-10-13T13:51:12.100Z,3.75
2022-10-13T13:53:39.050Z,1.60
2022-10-13T13:56:06.199Z,1.52
2022-10-13T13:58:33.244Z,4.93
2022-10-13T14:01:00.170Z,1.60
2022-10-13T14:03:27.731Z,1.77
2022-10-13T14:05:54.610Z,1.10
2022-10-13T14:08:21.525Z,1.40
2022-10-13T14:10:48.354Z,0.90
2022-10-13T14:13:15.377Z,1.00
2022-10-13T14:15:42.228Z,1.23
2022-10-13T14:18:09.032Z,1.27
2022-10-13T14:20:35.879Z,1.30
2022-10-13T14:23:02.812Z,1.38
2022-10-13T14:25:29.724Z,1.20
2022-10-13T14:27:56.623Z,1.00
2022-10-13T14:30:23.781Z,1.15
2022-10-13T14:32:51.166Z,1.00
2022-10-13T14:35:18.065Z,1.20
2022-10-13T14:37:44.911Z,1.10
2022-10-13T14:40:11.692Z,1.20
2022-10-13T14:42:39.691Z,1.00
2022-10-13T14:45:07.154Z,1.10
2022-10-13T14:47:34.199Z,1.00
2022-10-13T14:50:03.809Z,1.25
2022-10-13T14:52:30.732Z,1.00
2022-10-13T14:54:57.469Z,1.30
2022-10-13T14:57:25.118Z,1.30
2022-10-13T14:59:52.161Z,1.20
2022-10-13T15:02:22.156Z,1.40
2022-10-13T15:04:49.021Z,1.20
2022-10-13T15:07:15.777Z,1.20
2022-10-13T15:10:00.480Z,1.20
2022-10-13T15:12:29.654Z,1.17
2022-10-13T15:14:56.407Z,2.33
2022-10-13T15:17:23.339Z,7.63
2022-10-13T15:19:50.294Z,5.68
2022-10-13T15:22:17.080Z,8.00
2022-10-13T15:24:43.875Z,2.20
2022-10-13T15:27:10.652Z,4.80
2022-10-13T15:29:37.447Z,2.28
2022-10-13T15:32:09.810Z,2.42
2022-10-13T15:34:39.802Z,1.30
2022-10-13T15:37:07.140Z,1.70
2022-10-13T15:39:34.554Z,1.05
2022-10-13T15:42:01.457Z,1.15
2022-10-13T15:44:30.859Z,0.90
2022-10-13T15:47:11.573Z,0.85
2022-10-13T15:49:40.576Z,1.73
2022-10-13T15:52:07.581Z,1.75
2022-10-13T15:54:35.776Z,2.10
2022-10-13T15:57:02.680Z,1.60
2022-10-13T15:59:29.628Z,2.42
2022-10-13T16:01:56.431Z,1.55
2022-10-13T16:04:24.186Z,1.77
2022-10-13T16:06:51.190Z,2.50
2022-10-13T16:09:18.309Z,1.98
2022-10-13T16:11:45.302Z,2.83
2022-10-13T16:14:12.460Z,2.25
2022-10-13T16:16:41.313Z,1.58
2022-10-13T16:19:08.570Z,2.75
2022-10-13T16:21:35.722Z,2.35
2022-10-13T16:24:03.016Z,2.10
2022-10-13T16:26:29.872Z,2.20
2022-10-13T16:28:58.099Z,2.35
2022-10-13T16:31:25.250Z,2.38
2022-10-13T16:33:52.128Z,2.25
2022-10-13T16:36:20.993Z,2.60
2022-10-13T16:38:48.099Z,2.67
2022-10-13T16:41:18.171Z,2.40
2022-10-13T16:43:47.200Z,2.20
2022-10-13T16:46:16.793Z,2.88
2022-10-13T16:48:44.779Z,2.65
2022-10-13T16:51:17.341Z,2.88
2022-10-13T16:53:48.831Z,3.10
2022-10-13T16:56:16.500Z,2.78
2022-10-13T16:58:45.210Z,2.70
2022-10-13T17:01:13.488Z,2.65
2022-10-13T17:03:42.979Z,2.75
2022-10-13T17:06:11.277Z,2.35
2022-10-13T17:08:38.264Z,2.63
2022-10-13T17:11:06.115Z,2.50
2022-10-13T17:13:33.973Z,2.80
2022-10-13T17:16:02.028Z,2.80
2022-10-13T17:18:29.540Z,2.88
2022-10-13T17:20:58.733Z,3.25
2022-10-13T17:23:27.946Z,2.20
2022-10-13T17:25:55.802Z,2.30
2022-10-13T17:28:23.478Z,3.15
2022-10-13T17:31:20.750Z,2.92
2022-10-13T17:33:49.572Z,2.53
2022-10-13T17:36:20.815Z,2.50
2022-10-13T17:38:49.376Z,1.35
2022-10-13T17:41:17.654Z,2.08
2022-10-13T17:43:44.711Z,2.92
2022-10-13T17:46:35.519Z,2.58
2022-10-13T17:49:02.026Z,2.45
2022-10-13T17:51:29.260Z,2.88
2022-10-13T17:54:00.658Z,2.30
2022-10-13T17:56:29.224Z,2.95
2022-10-13T17:58:56.970Z,3.05
2022-10-13T18:01:29.746Z,3.03
2022-10-13T18:04:00.522Z,2.70
2022-10-13T18:06:36.749Z,2.65
2022-10-13T18:09:06.369Z,3.13
2022-10-13T18:11:33.822Z,2.70
2022-10-13T18:14:00.672Z,3.00
2022-10-13T18:16:27.711Z,2.70
2022-10-13T18:18:55.658Z,2.90
2022-10-13T18:21:26.235Z,2.85
2022-10-13T18:23:58.166Z,3.00
2022-10-13T18:26:26.618Z,2.20
2022-10-13T18:28:53.647Z,2.35
2022-10-13T18:31:23.373Z,2.72
2022-10-13T18:33:50.845Z,2.63
2022-10-13T18:36:26.804Z,1.85
2022-10-13T18:38:55.395Z,2.70
2022-10-13T18:41:24.593Z,2.83
2022-10-13T18:43:51.728Z,3.17
2022-10-13T18:46:19.138Z,3.50
2022-10-13T18:48:46.028Z,3.03
2022-10-13T18:51:15.193Z,3.22
2022-10-13T18:53:44.785Z,3.20
2022-10-13T18:56:20.775Z,2.17
2022-10-13T18:58:49.420Z,2.05
2022-10-13T19:01:18.878Z,2.95
2022-10-13T19:03:47.103Z,2.22
2022-10-13T19:06:15.971Z,2.72
2022-10-13T19:08:46.644Z,2.25
2022-10-13T19:11:20.202Z,2.92
2022-10-13T19:13:48.354Z,2.97
2022-10-13T19:16:18.111Z,3.20
2022-10-13T19:18:45.407Z,3.40
2022-10-13T19:21:12.572Z,3.30
2022-10-13T19:23:40.300Z,2.85
2022-10-13T19:26:15.080Z,3.35
2022-10-13T19:28:43.072Z,3.28
2022-10-13T19:31:18.405Z,2.88
2022-10-13T19:33:47.194Z,3.45
2022-10-13T19:36:25.915Z,2.67
2022-10-13T19:38:54.578Z,3.20
2022-10-13T19:41:21.547Z,1.92
2022-10-13T19:43:48.986Z,2.40
2022-10-13T19:46:17.067Z,3.00
2022-10-13T19:48:44.843Z,2.55
2022-10-13T19:51:12.933Z,2.75
2022-10-13T19:53:40.483Z,2.25
2022-10-13T19:56:07.831Z,2.90
2022-10-13T19:58:35.554Z,2.75
2022-10-13T20:01:05.219Z,2.97
2022-10-13T20:03:32.444Z,2.72
2022-10-13T20:06:05.039Z,3.05
2022-10-13T20:08:32.366Z,2.60
2022-10-13T20:11:00.707Z,2.50
2022-10-13T20:13:27.607Z,2.17
2022-10-13T20:15:54.387Z,2.60
2022-10-13T20:18:21.872Z,1.80
2022-10-13T20:20:48.688Z,2.72
2022-10-13T20:23:15.601Z,1.75
2022-10-13T20:25:42.901Z,2.42
2022-10-13T20:28:09.761Z,2.40
2022-10-13T20:30:39.711Z,2.50
2022-10-13T20:33:06.828Z,2.40
2022-10-13T20:35:33.680Z,2.42
2022-10-13T20:38:00.459Z,2.33
2022-10-13T20:40:27.501Z,2.22
2022-10-13T20:42:54.291Z,2.08
2022-10-13T20:45:21.262Z,1.75
2022-10-13T20:47:49.430Z,2.20
2022-10-13T20:50:16.220Z,1.20
2022-10-13T20:52:43.096Z,1.27
2022-10-13T20:55:10.157Z,2.58
2022-10-13T20:57:36.973Z,2.00
2022-10-13T21:00:05.834Z,1.98
2022-10-13T21:02:33.017Z,1.63
2022-10-13T21:04:59.808Z,2.20
2022-10-13T21:07:28.443Z,1.42
2022-10-13T21:09:55.269Z,1.85
2022-10-13T21:12:22.100Z,1.83
2022-10-13T21:14:49.054Z,1.38
2022-10-13T21:17:16.462Z,1.88
2022-10-13T21:19:43.273Z,2.20
2022-10-13T21:22:11.202Z,2.22
2022-10-13T21:24:38.048Z,1.92
2022-10-13T21:27:05.530Z,1.90
2022-10-13T21:29:32.346Z,1.00
2022-10-13T21:31:59.236Z,1.85
2022-10-13T21:34:26.037Z,1.92
2022-10-13T21:36:52.986Z,2.05
2022-10-13T21:39:19.856Z,1.63
2022-10-13T21:41:47.015Z,2.33
2022-10-13T21:44:14.824Z,2.30
2022-10-13T21:46:41.858Z,2.08
2022-10-13T21:49:10.126Z,2.33
2022-10-13T21:51:38.691Z,2.35
2022-10-13T21:54:11.603Z,2.13
2022-10-13T21:56:39.671Z,1.80
2022-10-13T21:59:07.400Z,2.20
2022-10-13T22:01:34.671Z,2.30
2022-10-13T22:04:02.612Z,2.22
2022-10-13T22:06:31.959Z,2.70
2022-10-13T22:09:00.936Z,2.30
2022-10-13T22:11:30.597Z,2.38
2022-10-13T22:13:58.127Z,2.20
2022-10-13T22:16:27.997Z,2.58
2022-10-13T22:18:57.182Z,2.60
2022-10-13T22:21:30.908Z,2.28
2022-10-13T22:24:04.908Z,1.77
2022-10-13T22:26:34.943Z,2.45
2022-10-13T22:29:03.270Z,2.55
2022-10-13T22:31:32.639Z,2.67
2022-10-13T22:34:00.543Z,2.67
2022-10-13T22:36:29.455Z,3.53
2022-10-13T22:38:58.483Z,2.78
2022-10-13T22:43:57.596Z,2.10
2022-10-13T22:46:31.065Z,2.75
2022-10-13T22:48:59.753Z,2.80
2022-10-13T22:51:28.509Z,3.05
2022-10-13T22:53:56.957Z,3.03
2022-10-13T22:56:29.645Z,2.65
2022-10-13T22:58:59.112Z,3.25
2022-10-13T23:01:26.828Z,3.30
2022-10-13T23:03:56.670Z,3.28
2022-10-13T23:06:26.247Z,2.88
2022-10-13T23:08:53.162Z,2.72
2022-10-13T23:11:21.717Z,2.60
2022-10-13T23:13:49.136Z,3.60
2022-10-13T23:16:19.174Z,3.00
2022-10-13T23:21:15.917Z,2.80
2022-10-13T23:23:43.481Z,2.72
2022-10-13T23:26:13.393Z,3.15
2022-10-13T23:28:41.284Z,3.45
2022-10-13T23:31:12.941Z,3.17
2022-10-13T23:33:40.437Z,3.00
2022-10-13T23:36:08.392Z,2.95
2022-10-13T23:38:35.371Z,2.50
2022-10-13T23:41:07.448Z,3.47
2022-10-13T23:43:34.424Z,2.92
2022-10-13T23:46:02.063Z,3.55
2022-10-13T23:48:29.757Z,2.72
2022-10-13T23:50:56.838Z,2.85
2022-10-13T23:53:24.789Z,3.33
2022-10-13T23:55:51.717Z,3.00
2022-10-13T23:58:18.533Z,3.13
